createdAt,value
2019-02-08T00:00:52.378Z,33.14
2019-02-08T00:20:51.851Z,49.27
2019-02-08T00:41:01.351Z,35.47
2019-02-08T01:01:13.251Z,38.74
2019-02-08T01:21:12.341Z,38.01
2019-02-08T01:41:22.022Z,29.59
2019-02-08T02:01:33.848Z,35.72
2019-02-08T02:21:33.370Z,37.51
2019-02-08T02:41:42.960Z,38.02
2019-02-08T03:01:52.500Z,42.42
2019-02-08T03:22:01.981Z,53.11
2019-02-08T03:42:11.562Z,54.23
2019-02-08T04:02:21.194Z,45.53
2019-02-08T04:22:30.754Z,46.18
2019-02-08T04:42:40.180Z,57.63
2019-02-08T05:02:49.790Z,47.07
2019-02-08T05:22:59.217Z,54.43
2019-02-08T05:43:08.823Z,47.07
2019-02-08T06:03:18.374Z,67.84
2019-02-08T06:23:27.895Z,40.94
2019-02-08T06:43:40.442Z,40.92
2019-02-08T07:03:40.002Z,37.80
2019-02-08T07:23:49.507Z,40.81
2019-02-08T07:43:59.059Z,46.45
2019-02-08T08:04:10.916Z,40.12
2019-02-08T08:24:10.399Z,36.98
2019-02-08T08:44:22.136Z,48.68
2019-02-08T09:04:21.598Z,47.89
2019-02-08T09:24:31.056Z,43.92
2019-02-08T09:44:45.084Z,47.35
2019-02-08T10:04:44.605Z,46.95
2019-02-08T10:24:54.146Z,48.37
2019-02-08T10:45:03.610Z,51.93
2019-02-08T11:05:13.119Z,48.57
2019-02-08T11:25:25.036Z,57.11
2019-02-08T11:45:24.596Z,54.37
2019-02-08T12:05:34.103Z,46.86
2019-02-08T12:25:43.665Z,48.98
2019-02-08T12:45:55.434Z,50.40
2019-02-08T13:05:55.163Z,51.75
2019-02-08T13:26:04.768Z,48.58
2019-02-08T13:46:14.438Z,59.70
2019-02-08T14:06:27.132Z,52.70
2019-02-08T14:26:26.622Z,54.60
2019-02-08T14:46:36.240Z,51.98
2019-02-08T15:06:45.767Z,51.45
2019-02-08T15:26:55.350Z,55.19
2019-02-08T15:47:05.070Z,53.15
2019-02-08T16:07:14.872Z,55.22
2019-02-08T16:27:24.423Z,59.75
2019-02-08T16:47:34.882Z,75.15
2019-02-08T17:07:47.950Z,80.99
2019-02-08T17:27:55.030Z,65.33
2019-02-08T17:47:56.953Z,72.72
2019-02-08T18:08:14.085Z,120.55
2019-02-08T18:28:16.659Z,115.48
2019-02-08T18:48:14.941Z,85.51
2019-02-08T19:08:24.500Z,87.45
2019-02-08T19:28:34.248Z,89.37
2019-02-08T19:48:51.340Z,99.04
2019-02-08T20:08:53.550Z,84.47
2019-02-08T20:28:53.264Z,87.58
2019-02-08T20:49:10.796Z,90.08
2019-02-08T21:09:11.432Z,88.81
2019-02-08T21:29:11.082Z,87.51
2019-02-08T21:49:20.787Z,115.53
2019-02-08T22:09:30.424Z,91.26
2019-02-08T22:29:40.011Z,92.65
2019-02-08T22:49:51.717Z,96.42
2019-02-08T23:09:51.294Z,148.66
2019-02-08T23:30:00.888Z,111.40
2019-02-08T23:50:10.496Z,115.73
